O'Neill, NE

6:02 PM CDT on July 30, 2014 (GMT -0500)
The O'Neill Municipal-Baker (KONL) Elev 2031 ft | 42.47 °N, 98.69 °W | Change Station

Current weather conditions updated 7 minutes ago

Scattered Clouds
Scattered Clouds
81 °F
Feels Like 81 °F
N
5
Wind Variable Wind from East

Tomorrow is forecast to be nearly the same temperature as today.

Today
High -- | Low -- °F
--% Chance of Precip.
Yesterday
High -- | Low -- °F
Precip. -- in
6:24 AM 8:56 PM
Waxing Crescent, 14% visible
Pressure 30.13 in
Visibility 10.0 miles
Clouds Scattered Clouds 7000 ft
Scattered Clouds 8000 ft
Heat Index 81 °F
Dew Point 55 °F
Humidity 41%
Rainfall 0.06 in
Snow Depth Not available.
UV 3 out of 12
Pollen 6.30 out of 12
Air Quality Not available.
Flu Activity Not available.
METAR KONL 302255Z AUTO 10004KT 10SM SCT070 SCT080 27/13 A3013 RMK AO2 T02740129

More Conditions Fewer Conditions

Pressure 30.13 in
Visibility 10.0 miles
Clouds Scattered Clouds 7000 ft
Scattered Clouds 8000 ft
Heat Index 81 °F
Dew Point 55 °F
Humidity 41%
Rainfall 0.06 in
Snow Depth Not available.
UV 3 out of 12
Pollen 6.30 out of 12
Air Quality Not available.
Flu Activity Not available.
METAR KONL 302255Z AUTO 10004KT 10SM SCT070 SCT080 27/13 A3013 RMK AO2 T02740129

More Conditions Fewer Conditions

10-Day Weather Forecast

Almanac

Astronomy

Jul. 30, 2014 Rise Set
Actual Time 6:24 AM CDT 8:56 PM CDT
Civil Twilight 5:52 AM CDT 9:28 PM CDT
Nautical Twilight 5:12 AM CDT 10:08 PM CDT
Astronomical Twilight 4:27 AM CDT 10:53 PM CDT
Moon 10:03 AM CDT 10:33 PM CDT
Length of Visible Light 15h 35m
Length of Day
14h 31m
Tomorrow will be 2m 7s shorter.
Waxing Crescent, 14% of the Moon is Illuminated
Today
Waxing Crescent
Aug 3
First Quarter
Aug 10
Full
Aug 17
Last Quarter
Aug 25
New

Today's Extremes

State Highs State Lows

Community

WunderPhotos

Upload Photos

1,739,240 photos uploaded!

Nearby

Snow Depth

Station Depth Elevation
No new snow has been reported.

Earthquake Activity

City Distance Mag. Time & Date
No recent earthquake activity has been reported nearby.
Minimum magnitude displayed is 2.5.

Coastal Water Temperatures

Place Temperature
No Stations Reporting

Nearby Weather Stations

Station Location Temp. Heat Index Dew Point Humidity Wind Precip. Elev Updated Type
50196 US Highway 20, Inman, NE 79.8 °F 80 °F 58 °F 48% NNE  at  3.0 mph 0.00 in / hr 1903 ft 6:02 PM CDT Rapid Fire
105 South Victoria Street, Chambers, NE 83.1 °F 82 °F 53 °F 36% North  at  2.5 mph 0.00 in / hr 2119 ft 6:02 PM CDT Rapid Fire

Show More Stations Show Fewer Stations